createdAt,value
2017-04-11T08:36:33.087Z,39.52
2017-04-11T08:41:32.989Z,41.87
2017-04-11T08:46:32.962Z,45.25
2017-04-11T08:51:32.932Z,44.52
2017-04-11T08:56:32.594Z,46.86
2017-04-11T09:01:32.878Z,47.97
2017-04-11T09:06:32.863Z,46.73
2017-04-11T09:11:32.798Z,39.69
2017-04-11T09:16:32.773Z,35.38
2017-04-11T09:21:32.741Z,36.25
2017-04-11T09:26:32.694Z,37.34
2017-04-11T09:31:32.669Z,37.94
2017-04-11T09:36:32.616Z,39.09
2017-04-11T09:41:32.587Z,36.19
2017-04-11T09:46:32.269Z,39.96
2017-04-11T09:51:32.288Z,36.7
2017-04-11T09:56:32.480Z,34.49
2017-04-11T10:01:32.420Z,34.1
2017-04-11T10:06:32.390Z,33.23
2017-04-11T10:11:32.036Z,32.89
2017-04-11T10:16:32.295Z,31.97
2017-04-11T10:21:32.269Z,30.42
2017-04-11T10:26:32.205Z,29.5
2017-04-11T10:31:32.194Z,29.81
2017-04-11T10:36:31.868Z,30.4
2017-04-11T10:41:32.098Z,31.1
2017-04-11T10:46:32.028Z,30.73
2017-04-11T10:51:31.993Z,32.43
2017-04-11T10:56:31.948Z,33.24
2017-04-11T11:01:31.901Z,30.1
2017-04-11T11:06:31.854Z,28.23
2017-04-11T11:11:31.850Z,27.59
2017-04-11T11:16:31.873Z,30.07
2017-04-11T11:21:31.712Z,27.93
2017-04-11T11:26:31.744Z,26.68
2017-04-11T11:31:31.624Z,25.82
2017-04-11T11:36:31.572Z,25.44
2017-04-11T11:41:31.529Z,25.02
2017-04-11T11:46:31.470Z,25.34
2017-04-11T11:51:31.418Z,25.29
2017-04-11T11:56:31.389Z,26.23
2017-04-11T12:01:31.324Z,25.57
2017-04-11T12:06:31.292Z,24.97
2017-04-11T12:11:31.248Z,25.05
2017-04-11T12:16:31.186Z,25.62
2017-04-11T12:21:31.143Z,25.57
2017-04-11T12:26:31.106Z,25.75
2017-04-11T12:31:31.050Z,25.47
2017-04-11T12:36:31.005Z,24.83
2017-04-11T12:41:30.649Z,25
2017-04-11T12:46:30.609Z,25.34
2017-04-11T12:51:30.846Z,25.07
2017-04-11T12:56:30.892Z,24.85
2017-04-11T13:01:30.759Z,25.34
2017-04-11T13:06:30.720Z,25.27
2017-04-11T13:11:30.672Z,25.19
2017-04-11T13:16:30.545Z,24.7
2017-04-11T13:21:30.573Z,24.96
2017-04-11T13:26:30.518Z,24.89
2017-04-11T13:31:30.467Z,24.83
2017-04-11T13:36:30.434Z,25.02
2017-04-11T13:41:30.409Z,25.14
2017-04-11T13:46:30.423Z,25.17
2017-04-11T13:51:30.339Z,25.07
2017-04-11T13:56:30.219Z,25.33
2017-04-11T14:01:30.187Z,25.33
2017-04-11T14:06:30.141Z,25.34
2017-04-11T14:11:30.083Z,25.29
2017-04-11T14:16:30.035Z,25.12
2017-04-11T14:21:29.987Z,24.9
2017-04-11T14:26:29.987Z,24.63
2017-04-11T14:31:29.906Z,24.18
2017-04-11T14:36:29.847Z,24.04
2017-04-11T14:41:29.783Z,24.22
2017-04-11T14:46:29.747Z,24.34
2017-04-11T14:51:29.706Z,24.3
2017-04-11T14:56:29.657Z,24.29
2017-04-11T15:01:29.295Z,24.19
2017-04-11T15:06:29.247Z,24.22
2017-04-11T15:11:29.215Z,24.14
2017-04-11T15:16:29.466Z,23.94
2017-04-11T15:21:29.411Z,23.6
2017-04-11T15:26:29.056Z,23.53
2017-04-11T15:31:29.321Z,23.1
2017-04-11T15:36:29.291Z,22.75
2017-04-11T15:41:29.231Z,22.34
2017-04-11T15:46:29.191Z,21.9
2017-04-11T15:51:29.145Z,21.36
2017-04-11T15:56:28.920Z,21
2017-04-11T16:01:29.023Z,20.66
2017-04-11T16:06:29.177Z,20.53
2017-04-11T16:11:28.600Z,20.49
2017-04-11T16:16:28.843Z,20.22
2017-04-11T16:21:28.798Z,20.01
2017-04-11T16:26:28.744Z,19.75
2017-04-11T16:31:28.672Z,19.68
2017-04-11T16:36:28.705Z,19.43
2017-04-11T16:41:28.569Z,19.35
2017-04-11T16:46:28.491Z,19.2
2017-04-11T16:51:28.425Z,19.07
2017-04-11T16:56:28.348Z,18.89
2017-04-11T17:01:28.301Z,18.82
2017-04-11T17:06:28.252Z,18.68
2017-04-11T17:11:28.236Z,18.6
2017-04-11T17:16:28.114Z,18.5
2017-04-11T17:21:27.753Z,18.53
2017-04-11T17:26:27.961Z,18.45
2017-04-11T17:31:27.896Z,18.65
2017-04-11T17:36:27.525Z,18.69
2017-04-11T17:41:27.828Z,18.66
2017-04-11T17:46:27.707Z,18.71
2017-04-11T17:51:27.647Z,18.69
2017-04-11T17:56:27.265Z,18.59
2017-04-11T18:01:27.521Z,18.44
2017-04-11T18:06:27.444Z,18.39
2017-04-11T18:11:27.363Z,18.29
2017-04-11T18:16:27.310Z,18.23
2017-04-11T18:21:27.238Z,18.21
2017-04-11T18:26:26.888Z,18.17
2017-04-11T18:31:27.123Z,18.11
2017-04-11T18:36:27.042Z,18.02
2017-04-11T18:41:26.984Z,17.94
2017-04-11T18:46:26.958Z,17.92
2017-04-11T18:51:26.603Z,17.86
2017-04-11T18:56:26.792Z,17.8
2017-04-11T19:01:26.959Z,17.73
2017-04-11T19:06:26.660Z,17.71
2017-04-11T19:11:26.700Z,17.68
2017-04-11T19:16:26.538Z,17.69
2017-04-11T19:21:26.509Z,17.57
2017-04-11T19:26:26.446Z,17.54
2017-04-11T19:31:26.359Z,17.57
2017-04-11T19:36:26.250Z,17.5
2017-04-11T19:41:26.198Z,17.47
2017-04-11T19:46:26.138Z,17.42
2017-04-11T19:51:26.054Z,17.39
2017-04-11T19:56:25.680Z,17.27
2017-04-11T20:01:25.952Z,17.38
2017-04-11T20:06:25.840Z,17.42
2017-04-11T20:11:25.778Z,17.42
2017-04-11T20:16:25.423Z,17.42
2017-04-11T20:21:25.638Z,17.38
2017-04-11T20:26:25.572Z,17.31
2017-04-11T20:31:25.507Z,17.28
2017-04-11T20:36:25.485Z,17.38
2017-04-11T20:41:25.380Z,17.35
2017-04-11T20:46:25.320Z,17.42
2017-04-11T20:51:25.241Z,17.32
2017-04-11T20:56:24.885Z,17.35
2017-04-11T21:01:25.108Z,17.27
2017-04-11T21:06:25.052Z,17.13
2017-04-11T21:11:25.075Z,17.05
2017-04-11T21:16:24.905Z,16.92
